Time;durP1;ratioP1;P1;durP2;ratioP2;P2;SDS_P1;SDS_P2;PMS_P1;PMS_P2;Temp;Humidity;BMP_temperature;BMP_pressure;BME280_temperature;BME280_humidity;BME280_pressure;Samples;Min_cycle;Max_cycle;Signal;HPM_P1;HPM_P2
2022/10/07 00:01:35;;;;;;;38.80;16.42;;;;;;;;;;8332825;28;20128;-86
2022/10/07 00:05:39;;;;;;;43.25;16.80;;;;;;;;;;8332731;28;20060;-86
2022/10/07 00:09:42;;;;;;;34.78;16.45;;;;;;;;;;8332697;28;20049;-87
2022/10/07 00:13:46;;;;;;;46.55;18.60;;;;;;;;;;8332136;28;20065;-87
2022/10/07 00:17:48;;;;;;;34.75;14.88;;;;;;;;;;8318276;28;20041;-86
2022/10/07 00:21:52;;;;;;;36.80;16.10;;;;;;;;;;8332255;28;20041;-86
2022/10/07 00:25:54;;;;;;;51.30;23.15;;;;;;;;;;8331861;28;20517;-87
2022/10/07 00:29:57;;;;;;;37.67;17.38;;;;;;;;;;8332191;28;20535;-86
2022/10/07 00:34:00;;;;;;;40.40;17.80;;;;;;;;;;8331974;28;20125;-87
2022/10/07 00:38:04;;;;;;;29.95;14.90;;;;;;;;;;8331790;28;20061;-86
2022/10/07 00:42:06;;;;;;;27.90;11.68;;;;;;;;;;8331577;28;20397;-86
2022/10/07 00:46:16;;;;;;;26.40;12.80;;;;;;;;;;8331384;28;20096;-86
2022/10/07 00:50:23;;;;;;;25.73;12.02;;;;;;;;;;8317840;28;20049;-86
2022/10/07 00:54:27;;;;;;;30.58;11.30;;;;;;;;;;8331296;28;20041;-86
2022/10/07 00:58:32;;;;;;;30.65;11.77;;;;;;;;;;8331014;28;20072;-87
2022/10/07 01:02:35;;;;;;;26.67;11.45;;;;;;;;;;8330953;28;20441;-86
2022/10/07 01:06:38;;;;;;;30.00;12.73;;;;;;;;;;8330700;28;20064;-86
2022/10/07 01:10:52;;;;;;;41.22;15.18;;;;;;;;;;8330328;28;20107;-86
2022/10/07 01:15:01;;;;;;;43.70;15.65;;;;;;;;;;8330672;28;20049;-86
2022/10/07 01:19:13;;;;;;;28.08;12.00;;;;;;;;;;8316527;28;20057;-87
2022/10/07 01:23:36;;;;;;;26.77;12.05;;;;;;;;;;8330687;28;20500;-86
2022/10/07 01:27:46;;;;;;;23.90;9.82;;;;;;;;;;8330108;28;20042;-87
2022/10/07 01:31:54;;;;;;;20.30;9.90;;;;;;;;;;8330032;28;20041;-86
2022/10/07 01:36:03;;;;;;;20.90;9.60;;;;;;;;;;8526005;23;20056;-89
2022/10/07 01:40:10;;;;;;;23.15;11.02;;;;;;;;;;8345735;28;20040;-88
2022/10/07 01:44:14;;;;;;;24.08;10.05;;;;;;;;;;8363644;28;20056;-88
2022/10/07 01:48:17;;;;;;;22.38;9.43;;;;;;;;;;8363139;28;20408;-88
2022/10/07 01:52:44;;;;;;;19.38;9.00;;;;;;;;;;8362886;28;20056;-87
2022/10/07 01:57:00;;;;;;;18.27;9.07;;;;;;;;;;8360579;28;20120;-89
2022/10/07 02:01:15;;;;;;;20.77;10.23;;;;;;;;;;8348490;28;20041;-89
2022/10/07 02:05:27;;;;;;;20.60;9.90;;;;;;;;;;8362432;28;20041;-89
2022/10/07 02:09:34;;;;;;;28.27;10.80;;;;;;;;;;8362271;28;20052;-89
2022/10/07 02:13:42;;;;;;;25.42;10.10;;;;;;;;;;8348166;28;20500;-88
2022/10/07 02:17:54;;;;;;;25.40;10.77;;;;;;;;;;8362294;28;20041;-88
2022/10/07 02:21:58;;;;;;;25.08;10.80;;;;;;;;;;8367774;28;20076;-88
2022/10/07 02:26:03;;;;;;;33.22;10.90;;;;;;;;;;8368968;28;20360;-86
2022/10/07 02:30:10;;;;;;;28.42;10.85;;;;;;;;;;8355133;28;20041;-88
2022/10/07 02:34:18;;;;;;;20.55;10.02;;;;;;;;;;8368635;28;20063;-88
2022/10/07 02:38:22;;;;;;;21.27;10.18;;;;;;;;;;8368713;28;20090;-87
2022/10/07 02:42:30;;;;;;;24.63;10.75;;;;;;;;;;8368563;28;20060;-88
2022/10/07 02:46:38;;;;;;;19.90;10.05;;;;;;;;;;8368293;28;20045;-87
2022/10/07 02:50:46;;;;;;;27.90;11.15;;;;;;;;;;8368389;28;20045;-87
2022/10/07 02:54:53;;;;;;;23.80;10.73;;;;;;;;;;8368402;28;20044;-88
2022/10/07 02:58:56;;;;;;;22.20;10.43;;;;;;;;;;8364326;28;20041;-87
2022/10/07 03:03:01;;;;;;;29.65;10.73;;;;;;;;;;8359061;28;20477;-89
2022/10/07 03:07:05;;;;;;;24.83;9.93;;;;;;;;;;8367778;28;20052;-89
2022/10/07 03:11:09;;;;;;;25.02;10.18;;;;;;;;;;8367617;28;20041;-87
2022/10/07 03:15:12;;;;;;;26.95;11.23;;;;;;;;;;8367877;28;20049;-87
2022/10/07 03:19:14;;;;;;;29.15;11.57;;;;;;;;;;8367308;28;20403;-87
2022/10/07 03:23:18;;;;;;;19.60;10.02;;;;;;;;;;8367217;28;20492;-88
2022/10/07 03:27:21;;;;;;;29.73;12.15;;;;;;;;;;8367587;28;20407;-88
2022/10/07 03:31:24;;;;;;;28.20;14.52;;;;;;;;;;8367078;28;20553;-86
2022/10/07 03:35:26;;;;;;;39.03;16.33;;;;;;;;;;8366631;28;20059;-87
2022/10/07 03:39:30;;;;;;;38.22;19.88;;;;;;;;;;8366555;28;20049;-87
2022/10/07 03:43:33;;;;;;;40.88;21.88;;;;;;;;;;8366807;28;20124;-87
2022/10/07 03:47:36;;;;;;;39.25;19.52;;;;;;;;;;8366454;28;20127;-87
2022/10/07 03:51:38;;;;;;;29.55;15.40;;;;;;;;;;8366219;28;20040;-87
2022/10/07 03:55:42;;;;;;;35.33;16.30;;;;;;;;;;8366505;28;20049;-87
2022/10/07 03:59:44;;;;;;;29.60;13.95;;;;;;;;;;8365943;28;20044;-86
2022/10/07 04:03:47;;;;;;;31.20;16.25;;;;;;;;;;8352118;28;20099;-88
2022/10/07 04:07:50;;;;;;;28.38;15.02;;;;;;;;;;8365798;28;20048;-87
2022/10/07 04:11:55;;;;;;;23.08;12.02;;;;;;;;;;8365685;28;20045;-86
2022/10/07 04:15:57;;;;;;;23.70;12.88;;;;;;;;;;8365327;28;20041;-87
2022/10/07 04:20:00;;;;;;;28.25;13.40;;;;;;;;;;8357970;28;20048;-86
2022/10/07 04:24:02;;;;;;;24.05;13.43;;;;;;;;;;8362691;28;20048;-87
2022/10/07 04:28:13;;;;;;;25.50;12.02;;;;;;;;;;8361693;28;20400;-88
2022/10/07 04:32:18;;;;;;;24.45;11.00;;;;;;;;;;8362027;28;20041;-88
2022/10/07 04:36:21;;;;;;;24.38;13.40;;;;;;;;;;8360766;28;20057;-86
2022/10/07 04:40:26;;;;;;;31.27;12.45;;;;;;;;;;8361061;28;20045;-87
2022/10/07 04:44:30;;;;;;;22.35;11.48;;;;;;;;;;8361573;28;20090;-87
2022/10/07 04:48:32;;;;;;;34.22;14.02;;;;;;;;;;8363612;28;20128;-87
2022/10/07 04:52:35;;;;;;;22.27;11.88;;;;;;;;;;8361213;28;20036;-87
2022/10/07 04:56:37;;;;;;;31.25;13.85;;;;;;;;;;8361080;28;20484;-86
2022/10/07 05:00:44;;;;;;;24.73;12.77;;;;;;;;;;8363344;28;20120;-87
2022/10/07 05:04:46;;;;;;;25.98;11.88;;;;;;;;;;8361096;28;20048;-86
2022/10/07 05:08:51;;;;;;;20.58;10.95;;;;;;;;;;8361047;28;20059;-85
2022/10/07 05:12:54;;;;;;;32.88;13.57;;;;;;;;;;8362544;28;20542;-87
2022/10/07 05:16:58;;;;;;;22.55;11.32;;;;;;;;;;8360579;28;20045;-86
2022/10/07 05:21:05;;;;;;;20.13;10.15;;;;;;;;;;8363484;28;20057;-86
2022/10/07 05:25:08;;;;;;;19.75;10.02;;;;;;;;;;8363430;28;20045;-87
2022/10/07 05:29:10;;;;;;;27.70;11.57;;;;;;;;;;8363221;28;20132;-86
2022/10/07 05:33:14;;;;;;;26.40;10.15;;;;;;;;;;8363075;28;20045;-86
2022/10/07 05:37:16;;;;;;;20.65;10.65;;;;;;;;;;8362777;28;20057;-86
2022/10/07 05:41:20;;;;;;;23.05;11.13;;;;;;;;;;8363052;28;20045;-87
2022/10/07 05:45:22;;;;;;;27.25;11.50;;;;;;;;;;8358746;28;20037;-87
2022/10/07 05:49:27;;;;;;;26.52;10.30;;;;;;;;;;8315235;28;20102;-86
2022/10/07 05:53:30;;;;;;;21.23;10.35;;;;;;;;;;8333362;28;20485;-87
2022/10/07 05:57:33;;;;;;;19.92;9.65;;;;;;;;;;8344918;28;20044;-87
2022/10/07 06:01:36;;;;;;;24.00;11.15;;;;;;;;;;8350107;28;20454;-87
2022/10/07 06:05:40;;;;;;;22.70;9.25;;;;;;;;;;8331846;28;20123;-87
2022/10/07 06:14:02;;;;;;;13.77;7.10;;;;;;;;;;8362231;28;20426;-88
2022/10/07 06:18:05;;;;;;;11.05;7.25;;;;;;;;;;8344734;28;20377;-88
2022/10/07 06:22:10;;;;;;;10.73;6.30;;;;;;;;;;8330684;28;20044;-89
2022/10/07 06:26:12;;;;;;;19.20;12.52;;;;;;;;;;8316260;28;20463;-89
2022/10/07 06:30:15;;;;;;;18.98;12.32;;;;;;;;;;8320158;28;20504;-88
2022/10/07 06:34:18;;;;;;;10.65;6.70;;;;;;;;;;8298209;28;20054;-90
2022/10/07 06:38:22;;;;;;;6.95;5.53;;;;;;;;;;8350734;28;20087;-90
2022/10/07 06:42:24;;;;;;;7.05;4.20;;;;;;;;;;8355087;28;20140;-91
2022/10/07 06:46:27;;;;;;;8.82;4.85;;;;;;;;;;8346026;28;20828;-90
2022/10/07 06:50:29;;;;;;;8.52;4.32;;;;;;;;;;8349282;28;20048;-90
2022/10/07 06:54:34;;;;;;;7.45;4.80;;;;;;;;;;8350054;28;20060;-89
2022/10/07 06:58:36;;;;;;;6.70;4.13;;;;;;;;;;8353784;28;20047;-90
2022/10/07 07:02:39;;;;;;;6.75;4.13;;;;;;;;;;8351807;28;20041;-90
2022/10/07 07:06:41;;;;;;;5.72;3.55;;;;;;;;;;8352087;28;20049;-89
2022/10/07 07:10:46;;;;;;;7.72;3.80;;;;;;;;;;8353493;28;20071;-89
2022/10/07 07:14:49;;;;;;;7.40;3.88;;;;;;;;;;8347687;28;20045;-90
2022/10/07 07:18:52;;;;;;;7.40;3.70;;;;;;;;;;8361867;28;20059;-90
2022/10/07 07:22:55;;;;;;;70.32;62.65;;;;;;;;;;8347643;28;20056;-90
2022/10/07 07:26:59;;;;;;;21.75;19.55;;;;;;;;;;8355801;28;20045;-90
2022/10/07 07:31:08;;;;;;;11.10;9.50;;;;;;;;;;8360071;28;20496;-91
2022/10/07 07:35:12;;;;;;;9.90;6.07;;;;;;;;;;8348655;28;20065;-91
2022/10/07 07:39:18;;;;;;;42.15;34.65;;;;;;;;;;8362141;28;20400;-91
2022/10/07 07:43:23;;;;;;;34.15;29.90;;;;;;;;;;8361139;28;20543;-93
2022/10/07 07:47:29;;;;;;;16.70;11.57;;;;;;;;;;8349518;28;20115;-90
2022/10/07 07:51:34;;;;;;;20.67;13.32;;;;;;;;;;8356362;28;20059;-90
2022/10/07 07:55:37;;;;;;;10.10;8.98;;;;;;;;;;8361727;28;20040;-90
2022/10/07 07:59:41;;;;;;;5.20;3.70;;;;;;;;;;8361503;28;20056;-90
2022/10/07 08:03:48;;;;;;;7.15;3.50;;;;;;;;;;8345620;28;20057;-91
2022/10/07 08:07:51;;;;;;;10.88;8.60;;;;;;;;;;8357977;28;20094;-90
2022/10/07 08:11:55;;;;;;;27.38;25.00;;;;;;;;;;8354405;28;20107;-90
2022/10/07 08:15:59;;;;;;;9.63;5.43;;;;;;;;;;8355701;28;20120;-90
2022/10/07 08:20:02;;;;;;;6.88;3.80;;;;;;;;;;8359915;28;20045;-91
2022/10/07 08:24:08;;;;;;;7.88;3.05;;;;;;;;;;8360536;28;20057;-90
2022/10/07 08:28:11;;;;;;;6.05;2.80;;;;;;;;;;8358211;28;20052;-90
2022/10/07 08:32:19;;;;;;;6.70;3.10;;;;;;;;;;8328334;28;20158;-90
2022/10/07 08:36:23;;;;;;;5.22;2.90;;;;;;;;;;8344065;28;20116;-89
2022/10/07 08:40:26;;;;;;;5.85;2.63;;;;;;;;;;8326092;28;20053;-90
2022/10/07 08:44:32;;;;;;;8.05;3.22;;;;;;;;;;8319952;28;20045;-89
2022/10/07 08:48:38;;;;;;;7.38;3.22;;;;;;;;;;8320942;28;20034;-90
2022/10/07 08:52:50;;;;;;;7.75;3.35;;;;;;;;;;8326888;28;20053;-90
2022/10/07 08:56:58;;;;;;;3.78;2.30;;;;;;;;;;8322527;28;20129;-90
2022/10/07 09:01:07;;;;;;;5.63;2.90;;;;;;;;;;8322735;28;20034;-91
2022/10/07 09:05:20;;;;;;;8.38;3.08;;;;;;;;;;8323900;28;20389;-90
2022/10/07 09:09:27;;;;;;;5.68;2.92;;;;;;;;;;8323456;28;20045;-90
2022/10/07 09:13:35;;;;;;;4.50;2.65;;;;;;;;;;8320942;28;20057;-91
2022/10/07 09:17:42;;;;;;;8.15;2.80;;;;;;;;;;8306408;28;20047;-90
2022/10/07 09:21:49;;;;;;;6.05;2.92;;;;;;;;;;8321398;28;20060;-91
2022/10/07 09:25:52;;;;;;;5.22;2.80;;;;;;;;;;8321129;28;20037;-90
2022/10/07 09:29:55;;;;;;;5.63;3.20;;;;;;;;;;8319321;28;20408;-91
2022/10/07 09:33:58;;;;;;;6.47;3.05;;;;;;;;;;8320009;28;20477;-91
2022/10/07 09:38:07;;;;;;;6.72;3.65;;;;;;;;;;8351522;28;20056;-90
2022/10/07 09:42:16;;;;;;;9.07;3.60;;;;;;;;;;8346781;28;20090;-90
2022/10/07 09:46:31;;;;;;;5.13;3.28;;;;;;;;;;8355721;28;20086;-90
2022/10/07 09:50:37;;;;;;;5.63;3.50;;;;;;;;;;8345646;28;20049;-90
2022/10/07 09:54:42;;;;;;;7.15;2.90;;;;;;;;;;8341912;28;20049;-91
2022/10/07 09:58:44;;;;;;;9.65;3.70;;;;;;;;;;8350596;28;20044;-90
2022/10/07 10:02:49;;;;;;;8.00;3.90;;;;;;;;;;8347438;28;20507;-90
2022/10/07 10:06:54;;;;;;;7.30;3.50;;;;;;;;;;8347886;28;20053;-90
2022/10/07 10:11:01;;;;;;;17.85;6.68;;;;;;;;;;8346843;28;20136;-90
2022/10/07 10:15:23;;;;;;;10.35;5.40;;;;;;;;;;8349197;28;20080;-89
2022/10/07 10:19:29;;;;;;;7.47;3.45;;;;;;;;;;8344328;28;20544;-90
2022/10/07 10:23:46;;;;;;;8.90;3.50;;;;;;;;;;8354988;28;20355;-90
2022/10/07 10:28:07;;;;;;;6.93;4.13;;;;;;;;;;8358300;28;20055;-91
2022/10/07 10:32:49;;;;;;;9.02;4.50;;;;;;;;;;8350417;28;20137;-92
2022/10/07 10:42:18;;;;;;;8.40;4.25;;;;;;;;;;8368237;23;20068;-90
2022/10/07 10:46:45;;;;;;;9.30;4.13;;;;;;;;;;8322201;28;20053;-93
2022/10/07 10:50:53;;;;;;;22.63;11.57;;;;;;;;;;8352445;28;20049;-90
2022/10/07 10:55:14;;;;;;;18.67;9.40;;;;;;;;;;8341314;28;20041;-91
2022/10/07 10:59:33;;;;;;;20.15;8.82;;;;;;;;;;8342580;28;20476;-90
2022/10/07 11:03:59;;;;;;;7.20;4.03;;;;;;;;;;8360354;28;20072;-90
2022/10/07 11:08:12;;;;;;;7.85;3.90;;;;;;;;;;8360035;28;20040;-90
2022/10/07 11:12:23;;;;;;;5.35;3.20;;;;;;;;;;8362728;28;20496;-89
2022/10/07 11:16:30;;;;;;;5.70;3.30;;;;;;;;;;8363370;28;20041;-91
2022/10/07 11:20:38;;;;;;;8.70;3.88;;;;;;;;;;8346049;28;20087;-90
2022/10/07 11:24:44;;;;;;;8.75;4.90;;;;;;;;;;8334517;28;20469;-90
2022/10/07 11:28:49;;;;;;;13.50;7.38;;;;;;;;;;8345924;28;20041;-89
2022/10/07 11:32:59;;;;;;;9.90;3.30;;;;;;;;;;8347452;28;20034;-90
2022/10/07 11:37:08;;;;;;;9.45;3.42;;;;;;;;;;8333515;28;20041;-91
2022/10/07 11:41:19;;;;;;;6.38;3.60;;;;;;;;;;8333606;28;20068;-89
2022/10/07 11:45:26;;;;;;;5.53;3.63;;;;;;;;;;8333711;28;20073;-90
2022/10/07 11:49:33;;;;;;;5.65;3.10;;;;;;;;;;8333295;28;20340;-90
2022/10/07 11:53:39;;;;;;;5.88;3.60;;;;;;;;;;8332127;28;20057;-90
2022/10/07 11:57:42;;;;;;;6.00;3.40;;;;;;;;;;8333107;28;20037;-90
2022/10/07 12:01:54;;;;;;;5.03;3.42;;;;;;;;;;8333173;28;20069;-91
2022/10/07 12:06:06;;;;;;;8.05;3.55;;;;;;;;;;8346730;28;20052;-90
2022/10/07 12:10:24;;;;;;;7.50;3.80;;;;;;;;;;8332585;28;20042;-90
2022/10/07 12:14:57;;;;;;;8.30;3.45;;;;;;;;;;8315618;28;20104;-90
2022/10/07 12:19:17;;;;;;;6.28;4.03;;;;;;;;;;8354023;28;20037;-90
2022/10/07 12:23:46;;;;;;;6.45;3.33;;;;;;;;;;8351003;28;20042;-89
2022/10/07 12:27:51;;;;;;;6.95;3.45;;;;;;;;;;8298009;28;20152;-89
2022/10/07 12:31:53;;;;;;;6.75;3.28;;;;;;;;;;8332973;28;20083;-90
2022/10/07 12:35:56;;;;;;;6.30;3.40;;;;;;;;;;8332034;28;20045;-89
2022/10/07 12:40:07;;;;;;;9.25;3.97;;;;;;;;;;8337716;28;20045;-91
2022/10/07 12:44:18;;;;;;;5.63;3.28;;;;;;;;;;8327612;28;20132;-89
2022/10/07 12:48:23;;;;;;;4.50;2.97;;;;;;;;;;8332092;28;20499;-91
2022/10/07 12:52:39;;;;;;;8.25;3.88;;;;;;;;;;8332232;28;20052;-90
2022/10/07 12:56:44;;;;;;;8.88;4.00;;;;;;;;;;8339824;28;20046;-90
2022/10/07 13:01:03;;;;;;;6.22;3.50;;;;;;;;;;8331443;28;20132;-90
2022/10/07 13:05:43;;;;;;;8.70;6.22;;;;;;;;;;8349435;28;20041;-90
2022/10/07 13:10:25;;;;;;;8.88;5.30;;;;;;;;;;8298969;28;20081;-90
2022/10/07 13:14:36;;;;;;;5.82;3.65;;;;;;;;;;8338733;28;20063;-90
2022/10/07 13:18:45;;;;;;;14.15;9.27;;;;;;;;;;8336127;28;20051;-89
2022/10/07 13:22:48;;;;;;;11.32;5.30;;;;;;;;;;8342543;28;20040;-90
2022/10/07 13:26:51;;;;;;;17.33;6.60;;;;;;;;;;8335304;28;20052;-90
2022/10/07 13:30:54;;;;;;;7.05;3.42;;;;;;;;;;8331563;28;20087;-89
2022/10/07 13:35:00;;;;;;;6.47;3.60;;;;;;;;;;8331398;28;20051;-88
2022/10/07 13:39:21;;;;;;;7.38;3.42;;;;;;;;;;8331049;28;20057;-91
2022/10/07 13:43:26;;;;;;;;;;;;;;;;;;8338279;28;20171;-89
2022/10/07 13:47:34;;;;;;;11.75;5.32;;;;;;;;;;8334183;28;19931;-90
2022/10/07 13:51:41;;;;;;;10.77;3.90;;;;;;;;;;8345650;28;20049;-90
2022/10/07 13:55:45;;;;;;;6.90;3.15;;;;;;;;;;8341246;28;20068;-89
2022/10/07 13:59:51;;;;;;;7.43;4.10;;;;;;;;;;8336388;28;20706;-89
2022/10/07 14:04:19;;;;;;;3.80;2.60;;;;;;;;;;8342150;28;20068;-90
2022/10/07 14:08:26;;;;;;;10.65;4.85;;;;;;;;;;8330948;28;20084;-90
2022/10/07 14:12:35;;;;;;;9.27;4.25;;;;;;;;;;8329219;28;20124;-90
2022/10/07 14:16:38;;;;;;;7.88;3.65;;;;;;;;;;8328881;28;20056;-89
2022/10/07 14:20:44;;;;;;;11.23;3.97;;;;;;;;;;8350064;28;20049;-90
2022/10/07 14:24:59;;;;;;;10.32;5.13;;;;;;;;;;8331589;28;20037;-89
2022/10/07 14:29:21;;;;;;;9.95;3.95;;;;;;;;;;8352586;28;20048;-90
2022/10/07 14:38:14;;;;;;;8.40;4.03;;;;;;;;;;8344974;28;20471;-90
2022/10/07 14:42:22;;;;;;;6.57;3.60;;;;;;;;;;8331297;28;20129;-91
2022/10/07 14:46:26;;;;;;;6.20;3.85;;;;;;;;;;8329564;28;20577;-90
2022/10/07 14:50:29;;;;;;;10.77;3.97;;;;;;;;;;8329425;28;20504;-90
2022/10/07 14:54:33;;;;;;;9.52;4.18;;;;;;;;;;8329253;28;20049;-90
2022/10/07 14:58:37;;;;;;;5.30;3.50;;;;;;;;;;8340248;28;20098;-90
2022/10/07 15:02:39;;;;;;;7.25;3.55;;;;;;;;;;8345967;28;20049;-89
2022/10/07 15:06:42;;;;;;;7.75;3.47;;;;;;;;;;8333820;28;20146;-89
2022/10/07 15:10:45;;;;;;;8.27;4.00;;;;;;;;;;8342421;28;20052;-90
2022/10/07 15:14:49;;;;;;;5.35;4.13;;;;;;;;;;8336334;28;20041;-88
2022/10/07 15:18:52;;;;;;;6.20;3.72;;;;;;;;;;8333651;28;20041;-89
2022/10/07 15:22:55;;;;;;;9.18;4.68;;;;;;;;;;8328650;28;20099;-90
2022/10/07 15:26:59;;;;;;;7.55;4.40;;;;;;;;;;8330198;28;20500;-89
2022/10/07 15:31:04;;;;;;;8.57;4.22;;;;;;;;;;8334191;28;20049;-90
2022/10/07 15:35:07;;;;;;;7.50;4.45;;;;;;;;;;8334291;28;20041;-89
2022/10/07 15:39:10;;;;;;;6.88;4.50;;;;;;;;;;8330741;28;20060;-88
2022/10/07 15:43:13;;;;;;;8.45;4.40;;;;;;;;;;8334025;28;20124;-90
2022/10/07 15:47:17;;;;;;;8.20;4.80;;;;;;;;;;8333869;28;20053;-89
2022/10/07 15:51:20;;;;;;;8.00;4.40;;;;;;;;;;8333951;28;20099;-89
2022/10/07 15:55:22;;;;;;;7.20;4.45;;;;;;;;;;8333803;28;20068;-91
2022/10/07 15:59:25;;;;;;;9.02;5.22;;;;;;;;;;8333533;28;20049;-90
2022/10/07 16:03:33;;;;;;;10.63;6.18;;;;;;;;;;8346900;28;20098;-89
2022/10/07 16:07:36;;;;;;;7.40;4.88;;;;;;;;;;8346975;28;20072;-90
2022/10/07 16:11:38;;;;;;;9.40;5.10;;;;;;;;;;8333204;28;20456;-90
2022/10/07 16:15:41;;;;;;;11.27;5.30;;;;;;;;;;8333109;28;20445;-90
2022/10/07 16:19:46;;;;;;;114.18;76.63;;;;;;;;;;8332888;28;20053;-89
2022/10/07 16:23:50;;;;;;;101.82;70.60;;;;;;;;;;8332766;28;20053;-89
2022/10/07 16:32:13;;;;;;;26.20;15.10;;;;;;;;;;8332720;28;20100;-89
2022/10/07 16:36:17;;;;;;;27.02;16.05;;;;;;;;;;8332418;28;20124;-88
2022/10/07 16:40:19;;;;;;;39.25;25.02;;;;;;;;;;8331270;28;20072;-90
2022/10/07 16:44:23;;;;;;;60.15;38.95;;;;;;;;;;8332353;28;20041;-89
2022/10/07 16:48:26;;;;;;;153.52;77.88;;;;;;;;;;8332066;28;20435;-89
2022/10/07 16:52:33;;;;;;;91.32;53.45;;;;;;;;;;8345914;28;20041;-90
2022/10/07 16:56:36;;;;;;;51.45;29.10;;;;;;;;;;8332058;28;20042;-88
2022/10/07 17:00:40;;;;;;;48.83;33.92;;;;;;;;;;8331843;28;20492;-88
2022/10/07 17:04:42;;;;;;;42.67;28.85;;;;;;;;;;8345667;28;20487;-88
2022/10/07 17:08:47;;;;;;;53.05;36.33;;;;;;;;;;8331502;28;20048;-89
2022/10/07 17:12:50;;;;;;;49.65;35.38;;;;;;;;;;8331760;28;20439;-89
2022/10/07 17:16:55;;;;;;;38.28;20.70;;;;;;;;;;8331413;28;20090;-90
2022/10/07 17:20:59;;;;;;;43.78;22.98;;;;;;;;;;8331780;28;20038;-90
2022/10/07 17:25:03;;;;;;;37.28;20.05;;;;;;;;;;8331281;28;20052;-89
2022/10/07 17:29:08;;;;;;;35.92;21.50;;;;;;;;;;8330837;28;20049;-90
2022/10/07 17:33:11;;;;;;;33.45;19.30;;;;;;;;;;8345104;28;20045;-90
2022/10/07 17:37:14;;;;;;;42.40;21.38;;;;;;;;;;8345116;28;20492;-90
2022/10/07 17:41:20;;;;;;;53.42;31.20;;;;;;;;;;8340820;28;20058;-88
2022/10/07 17:45:23;;;;;;;48.70;25.23;;;;;;;;;;8338639;28;20080;-89
2022/10/07 17:49:26;;;;;;;36.03;21.92;;;;;;;;;;8345537;28;20037;-88
2022/10/07 17:53:31;;;;;;;39.42;22.13;;;;;;;;;;8347139;28;20041;-89
2022/10/07 17:57:36;;;;;;;48.35;27.65;;;;;;;;;;8346932;28;20473;-90
2022/10/07 18:01:38;;;;;;;44.03;21.30;;;;;;;;;;8332296;28;20037;-90
2022/10/07 18:05:49;;;;;;;148.85;68.30;;;;;;;;;;8350444;28;20053;-90
2022/10/07 18:09:52;;;;;;;79.32;42.50;;;;;;;;;;8354868;28;20048;-90
2022/10/07 18:18:19;;;;;;;33.00;19.55;;;;;;;;;;8362299;28;20079;-89
2022/10/07 18:22:23;;;;;;;34.15;20.05;;;;;;;;;;8353208;28;20052;-91
2022/10/07 18:26:27;;;;;;;37.30;19.88;;;;;;;;;;8353688;28;20098;-90
2022/10/07 18:30:32;;;;;;;43.30;22.83;;;;;;;;;;8352944;28;20518;-90
2022/10/07 18:34:35;;;;;;;39.70;24.10;;;;;;;;;;8336254;28;20045;-89
2022/10/07 18:38:40;;;;;;;36.03;22.05;;;;;;;;;;8328806;28;20426;-89
2022/10/07 18:42:43;;;;;;;33.25;19.92;;;;;;;;;;8328229;28;20105;-90
2022/10/07 18:46:47;;;;;;;42.72;25.02;;;;;;;;;;8329119;28;20054;-89
2022/10/07 18:50:51;;;;;;;174.70;48.53;;;;;;;;;;8329389;28;20060;-90
2022/10/07 18:54:54;;;;;;;113.18;34.65;;;;;;;;;;8329351;28;20041;-90
2022/10/07 18:58:58;;;;;;;72.80;27.13;;;;;;;;;;8329483;28;20045;-89
2022/10/07 19:03:03;;;;;;;53.50;21.58;;;;;;;;;;8326019;28;20467;-89
2022/10/07 19:07:06;;;;;;;32.47;17.65;;;;;;;;;;8335195;28;20049;-89
2022/10/07 19:11:11;;;;;;;34.83;17.48;;;;;;;;;;8317360;28;20563;-89
2022/10/07 19:15:17;;;;;;;44.00;20.58;;;;;;;;;;8335286;28;20037;-89
2022/10/07 19:19:24;;;;;;;57.15;24.23;;;;;;;;;;8317922;28;20056;-89
2022/10/07 19:23:27;;;;;;;37.67;19.17;;;;;;;;;;8335070;28;20455;-90
2022/10/07 19:27:29;;;;;;;31.67;19.98;;;;;;;;;;8334700;28;20046;-90
2022/10/07 19:31:34;;;;;;;45.10;27.65;;;;;;;;;;8348466;28;20443;-90
2022/10/07 19:35:38;;;;;;;44.50;27.08;;;;;;;;;;8348594;28;20826;-89
2022/10/07 19:39:40;;;;;;;43.28;23.30;;;;;;;;;;8334021;28;20068;-89
2022/10/07 19:43:45;;;;;;;35.67;21.65;;;;;;;;;;8334127;28;20056;-89
2022/10/07 19:47:48;;;;;;;45.83;25.63;;;;;;;;;;8334059;28;20500;-90
2022/10/07 19:51:52;;;;;;;59.63;30.42;;;;;;;;;;8333740;28;20056;-90
2022/10/07 19:55:56;;;;;;;161.80;67.55;;;;;;;;;;8333974;28;20045;-89
2022/10/07 19:59:59;;;;;;;148.23;61.25;;;;;;;;;;8335234;28;21753;-90
2022/10/07 20:04:05;;;;;;;84.35;47.47;;;;;;;;;;8337336;28;20087;-89
2022/10/07 20:08:09;;;;;;;79.93;40.63;;;;;;;;;;8333582;28;20477;-89
2022/10/07 20:12:12;;;;;;;47.60;27.70;;;;;;;;;;8332825;28;20049;-90
2022/10/07 20:16:17;;;;;;;45.17;25.85;;;;;;;;;;8332373;28;20049;-89
2022/10/07 20:20:20;;;;;;;39.78;21.10;;;;;;;;;;8333352;28;20045;-89
2022/10/07 20:24:25;;;;;;;34.00;19.75;;;;;;;;;;8333035;28;20456;-89
2022/10/07 20:28:27;;;;;;;30.50;17.77;;;;;;;;;;8332625;28;20045;-89
2022/10/07 20:32:33;;;;;;;25.95;15.32;;;;;;;;;;8332533;28;20045;-88
2022/10/07 20:36:37;;;;;;;27.02;15.43;;;;;;;;;;8332580;28;20124;-90
2022/10/07 20:45:02;;;;;;;32.33;17.58;;;;;;;;;;8332584;28;20052;-90
2022/10/07 20:49:09;;;;;;;30.42;16.80;;;;;;;;;;8332183;28;20055;-88
2022/10/07 20:53:12;;;;;;;38.92;22.55;;;;;;;;;;8332063;28;20128;-89
2022/10/07 20:57:18;;;;;;;45.17;24.27;;;;;;;;;;8331892;28;20049;-89
2022/10/07 21:01:21;;;;;;;45.08;26.33;;;;;;;;;;8331800;28;20526;-88
2022/10/07 21:05:23;;;;;;;35.40;21.33;;;;;;;;;;8345814;28;20452;-88
2022/10/07 21:09:26;;;;;;;42.53;24.73;;;;;;;;;;8337876;28;20135;-90
2022/10/07 21:13:31;;;;;;;31.60;20.35;;;;;;;;;;8338398;28;20111;-88
2022/10/07 21:17:33;;;;;;;43.92;22.20;;;;;;;;;;8331098;28;20037;-89
2022/10/07 21:21:36;;;;;;;29.77;18.08;;;;;;;;;;8331129;28;20473;-90
2022/10/07 21:25:38;;;;;;;28.83;17.70;;;;;;;;;;8330935;28;20041;-89
2022/10/07 21:29:43;;;;;;;27.00;12.68;;;;;;;;;;8330704;28;20045;-89
2022/10/07 21:33:47;;;;;;;20.85;12.18;;;;;;;;;;8330833;28;20052;-90
2022/10/07 21:37:50;;;;;;;22.13;13.82;;;;;;;;;;8330585;28;20049;-89
2022/10/07 21:41:52;;;;;;;25.27;15.98;;;;;;;;;;8330231;28;20502;-89
2022/10/07 21:46:01;;;;;;;25.67;17.23;;;;;;;;;;8330346;28;20484;-89
2022/10/07 21:50:04;;;;;;;27.15;18.17;;;;;;;;;;8330200;28;20111;-89
2022/10/07 21:54:07;;;;;;;28.27;16.95;;;;;;;;;;8330301;28;20497;-89
2022/10/07 21:58:10;;;;;;;31.20;17.75;;;;;;;;;;8330060;28;20050;-88
2022/10/07 22:02:15;;;;;;;30.75;15.52;;;;;;;;;;8332970;28;20045;-89
2022/10/07 22:06:17;;;;;;;23.15;13.23;;;;;;;;;;8340219;28;20049;-89
2022/10/07 22:10:20;;;;;;;21.00;12.48;;;;;;;;;;8329805;28;20041;-88
2022/10/07 22:14:22;;;;;;;23.60;13.48;;;;;;;;;;8329697;28;20045;-89
2022/10/07 22:18:27;;;;;;;21.27;12.95;;;;;;;;;;8329887;28;20526;-89
2022/10/07 22:22:30;;;;;;;24.38;13.15;;;;;;;;;;8329657;28;20373;-89
2022/10/07 22:26:37;;;;;;;22.75;13.45;;;;;;;;;;8329626;28;20087;-89
2022/10/07 22:30:41;;;;;;;27.75;13.82;;;;;;;;;;8329736;28;20042;-88
2022/10/07 22:39:05;;;;;;;26.00;16.40;;;;;;;;;;8334591;28;20062;-89
2022/10/07 22:43:08;;;;;;;31.70;19.90;;;;;;;;;;8336090;28;20038;-89
2022/10/07 22:47:10;;;;;;;29.42;18.83;;;;;;;;;;8336190;28;20045;-89
2022/10/07 22:51:16;;;;;;;34.22;21.27;;;;;;;;;;8335585;28;20056;-89
2022/10/07 22:55:20;;;;;;;32.65;20.40;;;;;;;;;;8335690;28;20050;-88
2022/10/07 22:59:22;;;;;;;27.88;17.58;;;;;;;;;;8335459;28;20073;-89
2022/10/07 23:03:27;;;;;;;34.60;19.67;;;;;;;;;;8348140;28;20476;-88
2022/10/07 23:07:31;;;;;;;32.95;18.27;;;;;;;;;;8335637;28;20033;-89
2022/10/07 23:11:33;;;;;;;28.42;16.98;;;;;;;;;;8335055;28;20128;-88
2022/10/07 23:15:36;;;;;;;31.75;16.90;;;;;;;;;;8334902;28;20049;-88
2022/10/07 23:19:38;;;;;;;28.20;15.98;;;;;;;;;;8334521;28;20048;-88
2022/10/07 23:23:45;;;;;;;31.17;16.33;;;;;;;;;;8334709;28;20049;-89
2022/10/07 23:27:48;;;;;;;29.15;16.02;;;;;;;;;;8334563;28;20048;-88
2022/10/07 23:31:51;;;;;;;32.85;16.60;;;;;;;;;;8334663;28;20045;-87
2022/10/07 23:35:56;;;;;;;30.95;15.23;;;;;;;;;;8334672;28;20053;-88
2022/10/07 23:40:00;;;;;;;27.02;14.25;;;;;;;;;;8348219;28;20061;-89
2022/10/07 23:44:03;;;;;;;29.02;14.63;;;;;;;;;;8345446;28;20049;-88
2022/10/07 23:48:06;;;;;;;35.53;16.33;;;;;;;;;;8335849;28;20056;-89
2022/10/07 23:52:08;;;;;;;32.55;15.05;;;;;;;;;;8333740;28;20128;-87
2022/10/07 23:56:13;;;;;;;33.67;15.23;;;;;;;;;;8333674;28;20107;-88
